Time;durP1;ratioP1;P1;durP2;ratioP2;P2;SDS_P1;SDS_P2;PMS_P1;PMS_P2;Temp;Humidity;BMP_temperature;BMP_pressure;BME280_temperature;BME280_humidity;BME280_pressure;Samples;Min_cycle;Max_cycle;Signal;HPM_P1;HPM_P2
2022/10/12 00:01:06;;;;;;;;;13.75;12.25;;;;;12.30;55.45;102087.97;5137951;27;45493;-80
2022/10/12 00:03:32;;;;;;;;;14.00;12.00;;;;;12.31;55.32;102094.03;5119575;27;45473;-80
2022/10/12 00:06:18;;;;;;;;;15.00;11.00;;;;;12.29;55.05;102096.66;5119828;27;45427;-80
2022/10/12 00:08:44;;;;;;;;;14.00;8.75;;;;;12.28;55.69;102092.34;5138320;27;45503;-80
2022/10/12 00:11:12;;;;;;;;;12.25;12.00;;;;;12.29;55.26;102085.38;5119570;27;45415;-80
2022/10/12 00:13:38;;;;;;;;;11.75;11.75;;;;;12.25;55.57;102095.00;5119507;27;45387;-80
2022/10/12 00:16:04;;;;;;;;;10.75;10.75;;;;;12.19;55.34;102087.25;5118415;27;64162;-80
2022/10/12 00:18:30;;;;;;;;;13.25;11.00;;;;;12.13;55.43;102087.34;5137801;27;45426;-80
2022/10/12 00:21:15;;;;;;;;;12.75;11.75;;;;;12.08;55.86;102089.16;5137228;27;46984;-80
2022/10/12 00:23:41;;;;;;;;;8.75;8.75;;;;;12.02;55.98;102087.50;5137905;27;45886;-80
2022/10/12 00:26:10;;;;;;;;;12.25;12.00;;;;;11.97;56.25;102090.16;5119502;27;45389;-80
2022/10/12 00:28:35;;;;;;;;;14.00;12.00;;;;;11.94;56.14;102086.72;5137637;27;45232;-80
2022/10/12 00:31:05;;;;;;;;;13.25;11.00;;;;;11.90;56.01;102083.28;5118721;27;57788;-81
2022/10/12 00:33:30;;;;;;;;;15.00;12.75;;;;;11.92;56.18;102086.75;5137734;27;46108;-80
2022/10/12 00:35:56;;;;;;;;;13.75;10.75;;;;;11.88;56.27;102091.97;5136948;27;67970;-80
2022/10/12 00:38:22;;;;;;;;;12.75;11.75;;;;;11.85;56.62;102089.41;5119278;27;45499;-80
2022/10/12 00:40:47;;;;;;;;;14.75;13.00;;;;;11.82;56.81;102088.56;5136603;27;75233;-80
2022/10/12 00:43:25;;;;;;;;;21.00;14.00;;;;;11.80;56.47;102092.94;5137240;27;45509;-80
2022/10/12 00:45:50;;;;;;;;;10.25;10.25;;;;;11.76;56.92;102085.19;5137835;27;45342;-80
2022/10/12 00:48:15;;;;;;;;;14.25;11.00;;;;;11.75;57.15;102088.66;5118972;27;48505;-80
2022/10/12 00:50:41;;;;;;;;;14.00;12.50;;;;;11.72;57.05;102086.97;5100857;27;72384;-80
2022/10/12 00:53:19;;;;;;;;;19.25;11.75;;;;;11.70;57.18;102091.34;5118289;27;63810;-80
2022/10/12 00:55:51;;;;;;;;;11.75;11.50;;;;;11.69;57.10;102088.75;5119061;27;45510;-80
2022/10/12 00:58:17;;;;;;;;;13.25;11.00;;;;;11.67;57.39;102088.75;5118747;27;45385;-80
2022/10/12 01:00:43;;;;;;;;;18.50;14.25;;;;;11.69;57.39;102094.81;5117856;27;71433;-80
2022/10/12 01:03:09;;;;;;;;;12.25;11.00;;;;;11.68;57.57;102093.09;5119114;27;45395;-80
2022/10/12 01:05:37;;;;;;;;;13.25;11.00;;;;;11.66;57.33;102078.34;5118951;27;45395;-80
2022/10/12 01:08:02;;;;;;;;;14.00;13.00;;;;;11.63;57.56;102087.06;5119036;27;45332;-80
2022/10/12 01:10:27;;;;;;;;;11.50;8.75;;;;;11.61;57.40;102081.03;5137245;27;46612;-80
2022/10/12 01:12:53;;;;;;;;;12.25;12.00;;;;;11.57;57.54;102082.78;5118498;27;45440;-80
2022/10/12 01:15:19;;;;;;;;;14.25;11.00;;;;;11.57;57.76;102079.31;5119053;27;45384;-80
2022/10/12 01:17:47;;;;;;;;;16.50;11.50;;;;;11.57;57.28;102074.09;5118702;27;45601;-80
2022/10/12 01:20:50;;;;;;;;;16.25;11.50;;;;;11.57;57.71;102084.50;5136640;27;47171;-80
2022/10/12 01:23:15;;;;;;;;;11.00;10.75;;;;;11.55;57.55;102081.06;5137292;27;45436;-80
2022/10/12 01:25:50;;;;;;;;;17.25;12.75;;;;;11.55;57.55;102079.34;5137237;27;45219;-80
2022/10/12 01:28:31;;;;;;;;;10.50;9.50;;;;;11.58;58.04;102078.44;5118270;27;45533;-80
2022/10/12 01:31:03;;;;;;;;;10.50;8.50;;;;;11.57;57.25;102076.69;5137338;27;46395;-80
2022/10/12 01:33:36;;;;;;;;;15.75;13.50;;;;;11.58;57.55;102076.69;5121985;27;45857;-80
2022/10/12 01:36:10;;;;;;;;;12.50;9.25;;;;;11.58;57.82;102078.44;5122260;27;45275;-80
2022/10/12 01:38:51;;;;;;;;;16.50;11.50;;;;;11.55;57.64;102079.34;5122217;27;45283;-80
2022/10/12 01:41:26;;;;;;;;;12.25;10.00;;;;;11.51;57.83;102077.63;5121400;27;46564;-80
2022/10/12 01:43:52;;;;;;;;;16.00;10.25;;;;;11.47;57.93;102068.13;5122007;27;45835;-80
2022/10/12 01:46:17;;;;;;;;;12.25;9.25;;;;;11.46;58.00;102074.25;5140656;27;45410;-80
2022/10/12 01:48:45;;;;;;;;;13.00;11.33;;;;;11.45;57.84;102074.25;5140393;27;45339;-80
2022/10/12 01:51:12;;;;;;;;;13.00;10.75;;;;;11.41;57.62;102069.06;5121556;27;46475;-80
2022/10/12 01:53:40;;;;;;;;;9.00;9.00;;;;;11.38;58.03;102070.84;5121582;27;45477;-80
2022/10/12 01:56:14;;;;;;;;;15.00;10.00;;;;;11.34;57.77;102066.53;5121665;27;45370;-80
2022/10/12 01:59:08;;;;;;;;;13.25;7.00;;;;;11.29;57.98;102073.53;5140239;27;45417;-80
2022/10/12 02:02:08;;;;;;;;;11.50;10.00;;;;;11.26;58.52;102070.97;5018857;28;47136;-80
2022/10/12 02:04:58;;;;;;;;;13.75;12.00;;;;;11.25;58.46;102067.50;5019097;28;45591;-80
2022/10/12 02:07:40;;;;;;;;;10.75;7.50;;;;;11.23;58.48;102061.44;4937252;28;45325;-80
2022/10/12 02:10:12;;;;;;;;;11.75;10.00;;;;;11.24;58.72;102065.78;4936845;28;45450;-80
2022/10/12 02:12:40;;;;;;;;;16.25;11.50;;;;;11.22;58.57;102057.97;4937246;28;46551;-80
2022/10/12 02:15:07;;;;;;;;;12.00;12.00;;;;;11.20;58.98;102058.88;4937263;28;45802;-80
2022/10/12 02:17:33;;;;;;;;;13.00;11.00;;;;;11.25;58.39;102057.06;4937109;28;45448;-80
2022/10/12 02:19:59;;;;;;;;;11.50;11.50;;;;;11.29;58.48;102061.38;4936403;28;62249;-80
2022/10/12 02:22:32;;;;;;;;;18.50;11.75;;;;;11.28;58.48;102053.59;4921051;28;46422;-80
2022/10/12 02:24:58;;;;;;;;;15.75;11.00;;;;;11.26;58.84;102055.34;4921202;28;45524;-80
2022/10/12 02:27:25;;;;;;;;;11.75;8.00;;;;;11.22;58.63;102044.94;4921209;28;45450;-80
2022/10/12 02:29:50;;;;;;;;;14.75;10.75;;;;;11.18;58.79;102042.38;4921038;28;45474;-80
2022/10/12 02:32:18;;;;;;;;;15.00;12.00;;;;;11.14;58.53;102038.94;4919873;28;75438;-80
2022/10/12 02:34:49;;;;;;;;;13.75;11.00;;;;;11.11;59.06;102038.13;4951868;28;45938;-80
2022/10/12 02:37:33;;;;;;;;;11.00;7.00;;;;;11.10;58.76;102039.84;4957406;28;45501;-80
2022/10/12 02:40:12;;;;;;;;;14.75;11.50;;;;;11.08;58.78;102032.94;5014941;28;45468;-80
2022/10/12 02:42:41;;;;;;;;;12.00;8.00;;;;;11.05;58.83;102031.25;4997933;28;47194;-80
2022/10/12 02:45:08;;;;;;;;;8.00;8.00;;;;;11.01;58.85;102033.00;5059185;27;45369;-80
2022/10/12 02:47:34;;;;;;;;;11.75;11.00;;;;;10.99;59.23;102028.66;5080037;27;45348;-80
2022/10/12 02:50:00;;;;;;;;;12.75;10.75;;;;;10.96;58.83;102029.56;5079916;27;45554;-80
2022/10/12 02:52:25;;;;;;;;;15.50;11.25;;;;;10.93;59.31;102034.81;5079693;27;46261;-80
2022/10/12 02:54:51;;;;;;;;;13.75;12.00;;;;;10.92;59.40;102029.59;5079085;27;45555;-80
2022/10/12 02:57:17;;;;;;;;;6.25;5.00;;;;;10.92;58.88;102030.50;5079847;27;45862;-80
2022/10/12 02:59:42;;;;;;;;;10.75;10.00;;;;;10.94;59.57;102030.44;5079604;27;45391;-80
2022/10/12 03:02:09;;;;;;;;;11.50;11.00;;;;;10.93;59.13;102031.34;5097566;27;50484;-80
2022/10/12 03:04:35;;;;;;;;;10.00;10.00;;;;;10.93;59.65;102028.75;5097736;27;45699;-80
2022/10/12 03:07:00;;;;;;;;;11.25;10.00;;;;;10.87;59.53;102027.06;5079563;27;45289;-80
2022/10/12 03:09:25;;;;;;;;;13.50;8.50;;;;;10.84;59.75;102024.47;5096520;27;67998;-80
2022/10/12 03:11:51;;;;;;;;;12.25;8.00;;;;;10.81;60.02;102019.31;5079444;27;45446;-80
2022/10/12 03:14:16;;;;;;;;;16.50;8.75;;;;;10.81;59.85;102024.53;5095552;27;66192;-80
2022/10/12 03:16:42;;;;;;;;;11.00;9.00;;;;;10.80;59.51;102012.38;5097514;27;45363;-80
2022/10/12 03:19:08;;;;;;;;;10.50;10.00;;;;;10.77;59.85;102013.28;5081268;27;45326;-80
2022/10/12 03:21:33;;;;;;;;;14.50;11.00;;;;;10.76;59.67;102008.06;5116814;27;46050;-80
2022/10/12 03:23:59;;;;;;;;;10.50;10.00;;;;;10.72;60.05;102017.66;5138685;27;45329;-80
2022/10/12 03:26:24;;;;;;;;;10.75;8.00;;;;;10.70;59.74;102016.81;5138655;27;49217;-80
2022/10/12 03:28:49;;;;;;;;;8.75;6.25;;;;;10.67;60.06;102021.16;5138078;27;62824;-80
2022/10/12 03:31:15;;;;;;;;;9.75;7.25;;;;;10.63;59.81;102009.91;5138669;27;47120;-80
2022/10/12 03:33:40;;;;;;;;;14.25;11.50;;;;;10.63;60.38;102017.72;5131235;27;45382;-80
2022/10/12 03:36:06;;;;;;;;;10.00;8.00;;;;;10.64;60.07;102015.13;5117039;27;68108;-80
2022/10/12 03:38:31;;;;;;;;;12.50;10.50;;;;;10.62;60.10;102014.28;5117592;27;45333;-80
2022/10/12 03:40:57;;;;;;;;;12.00;9.50;;;;;10.60;60.62;102017.75;5098532;27;72092;-80
2022/10/12 03:43:22;;;;;;;;;9.50;9.00;;;;;10.57;60.19;102018.66;5117921;27;45338;-80
2022/10/12 03:45:48;;;;;;;;;16.75;11.50;;;;;10.54;60.09;102021.25;5099487;27;45889;-80
2022/10/12 03:48:13;;;;;;;;;12.75;9.75;;;;;10.52;60.45;102020.41;5117844;27;45420;-80
2022/10/12 03:50:39;;;;;;;;;10.50;7.00;;;;;10.50;60.61;102016.97;5117589;27;46238;-80
2022/10/12 03:53:04;;;;;;;;;11.25;7.25;;;;;10.50;60.68;102018.72;5097942;27;66983;-80
2022/10/12 03:55:30;;;;;;;;;11.00;10.50;;;;;10.46;60.37;102016.13;5116926;27;45263;-80
2022/10/12 03:57:56;;;;;;;;;4.00;4.00;;;;;10.45;60.87;102021.34;5117873;27;45328;-80
2022/10/12 04:00:21;;;;;;;;;14.25;11.25;;;;;10.43;60.81;102020.50;5098960;27;46351;-80
2022/10/12 04:02:47;;;;;;;;;14.25;10.50;;;;;10.40;60.67;102024.00;5117634;27;45331;-80
2022/10/12 04:05:12;;;;;;;;;15.25;11.00;;;;;10.41;60.31;102019.63;5117602;27;45294;-80
2022/10/12 04:07:37;;;;;;;;;16.00;10.50;;;;;10.42;61.01;102026.59;5117302;27;45363;-80
2022/10/12 04:10:04;;;;;;;;;8.50;8.00;;;;;10.43;60.37;102026.56;5117256;27;47288;-80
2022/10/12 04:12:29;;;;;;;;;11.25;10.00;;;;;10.44;60.76;102030.91;5117290;27;45838;-80
2022/10/12 04:14:54;;;;;;;;;12.50;10.25;;;;;10.42;61.00;102029.19;5117524;27;45413;-80
2022/10/12 04:17:20;;;;;;;;;10.50;10.00;;;;;10.36;60.39;102021.41;5117306;27;45358;-80
2022/10/12 04:19:45;;;;;;;;;12.00;9.00;;;;;10.33;60.75;102027.50;5097441;27;74053;-80
2022/10/12 04:22:11;;;;;;;;;11.00;8.00;;;;;10.28;61.11;102034.44;5115991;27;70870;-80
2022/10/12 04:24:36;;;;;;;;;10.00;10.00;;;;;10.25;61.06;102034.47;5117310;27;45472;-79
2022/10/12 04:27:01;;;;;;;;;14.25;8.25;;;;;10.20;61.39;102036.25;5116568;27;63088;-80
2022/10/12 04:29:27;;;;;;;;;10.75;8.00;;;;;10.18;60.97;102041.47;5116869;27;50129;-80
2022/10/12 04:31:52;;;;;;;;;12.00;7.25;;;;;10.13;61.55;102037.16;5117128;27;45397;-80
2022/10/12 04:34:18;;;;;;;;;13.25;9.00;;;;;10.11;61.80;102042.38;5128925;27;57898;-80
2022/10/12 04:36:44;;;;;;;;;13.75;10.75;;;;;10.09;61.80;102041.50;5119078;27;45435;-80
2022/10/12 04:39:09;;;;;;;;;11.00;9.75;;;;;10.08;61.53;102039.78;5119235;27;45442;-80
2022/10/12 04:41:35;;;;;;;;;11.25;9.00;;;;;10.08;61.82;102032.84;5137560;27;46078;-80
2022/10/12 04:44:00;;;;;;;;;11.50;8.75;;;;;10.07;61.45;102040.66;5137849;27;45382;-79
2022/10/12 04:46:25;;;;;;;;;14.25;12.00;;;;;10.08;61.80;102031.97;5137794;27;45195;-80
2022/10/12 04:48:51;;;;;;;;;13.25;10.25;;;;;10.08;61.69;102029.38;5137037;27;60783;-80
2022/10/12 04:51:16;;;;;;;;;19.00;10.00;;;;;10.10;61.29;102035.41;5136541;27;61596;-80
2022/10/12 04:53:42;;;;;;;;;11.25;11.25;;;;;10.11;61.35;102033.72;5137191;27;53346;-80
2022/10/12 04:56:07;;;;;;;;;11.50;7.00;;;;;10.11;61.62;102034.56;5137738;27;45295;-80
2022/10/12 04:58:32;;;;;;;;;11.00;9.00;;;;;10.13;61.44;102027.59;5118851;27;45956;-80
2022/10/12 05:00:58;;;;;;;;;10.00;8.25;;;;;10.13;61.38;102022.41;5137520;27;45443;-80
2022/10/12 05:03:24;;;;;;;;;11.25;7.00;;;;;10.14;61.82;102029.34;5136580;27;65659;-80
2022/10/12 05:05:49;;;;;;;;;9.50;8.25;;;;;10.14;61.73;102031.06;5120464;27;45420;-80
2022/10/12 05:08:15;;;;;;;;;12.75;9.00;;;;;10.15;61.42;102025.00;5141042;27;45624;-80
2022/10/12 05:10:40;;;;;;;;;12.50;9.75;;;;;10.15;61.87;102019.81;5122356;27;45382;-80
2022/10/12 05:13:06;;;;;;;;;13.75;10.00;;;;;10.14;61.81;102031.94;5141271;27;45357;-80
2022/10/12 05:15:31;;;;;;;;;11.50;9.75;;;;;10.12;61.85;102025.88;5121511;27;68112;-80
2022/10/12 05:17:56;;;;;;;;;12.50;10.00;;;;;10.11;61.84;102033.72;5139960;27;70591;-80
2022/10/12 05:20:22;;;;;;;;;12.75;10.00;;;;;10.09;62.05;102028.50;5139027;27;73228;-80
2022/10/12 05:22:47;;;;;;;;;14.50;11.25;;;;;10.07;61.92;102030.25;5139930;27;69332;-80
2022/10/12 05:25:12;;;;;;;;;12.00;9.50;;;;;10.04;62.35;102028.53;5140938;27;45296;-80
2022/10/12 05:27:38;;;;;;;;;10.25;9.00;;;;;10.04;62.02;102035.47;5140259;27;57825;-80
2022/10/12 05:30:04;;;;;;;;;17.75;10.00;;;;;10.05;62.26;102030.25;5121118;27;67834;-80
2022/10/12 05:32:30;;;;;;;;;9.25;7.00;;;;;10.04;62.42;102038.06;5140806;27;45244;-80
2022/10/12 05:34:55;;;;;;;;;6.25;6.00;;;;;10.04;62.54;102044.13;5140323;27;45515;-80
2022/10/12 05:37:20;;;;;;;;;9.75;8.00;;;;;10.04;62.06;102038.94;5104695;27;47051;-80
2022/10/12 05:39:46;;;;;;;;;15.00;11.00;;;;;10.02;62.40;102034.63;5139759;27;68429;-80
2022/10/12 05:42:11;;;;;;;;;9.75;9.25;;;;;9.98;62.09;102038.13;5139754;27;65052;-80
2022/10/12 05:44:36;;;;;;;;;10.75;9.25;;;;;9.95;62.62;102036.38;5139785;27;67297;-79
2022/10/12 05:47:02;;;;;;;;;12.25;9.50;;;;;9.93;62.52;102035.53;5120790;27;75542;-80
2022/10/12 05:49:27;;;;;;;;;15.00;10.00;;;;;9.94;62.32;102034.66;5139400;27;64962;-79
2022/10/12 05:51:53;;;;;;;;;15.75;11.00;;;;;9.96;62.31;102030.31;5122012;27;45318;-80
2022/10/12 05:54:18;;;;;;;;;14.25;10.75;;;;;9.94;62.30;102026.00;5140346;27;45407;-80
2022/10/12 05:56:44;;;;;;;;;14.25;14.00;;;;;9.92;62.34;102023.41;5139115;27;72804;-80
2022/10/12 05:59:10;;;;;;;;;12.25;10.00;;;;;9.90;62.59;102025.16;5121618;27;45443;-80
2022/10/12 06:01:35;;;;;;;;;15.75;12.50;;;;;9.88;62.82;102027.75;5140223;27;45432;-80
2022/10/12 06:04:00;;;;;;;;;14.00;13.00;;;;;9.88;62.76;102032.97;5139015;27;65672;-80
2022/10/12 06:06:26;;;;;;;;;11.25;10.00;;;;;9.87;62.44;102039.03;5139510;27;59567;-80
2022/10/12 06:08:51;;;;;;;;;13.75;10.00;;;;;9.85;62.60;102038.16;5120641;27;71150;-80
2022/10/12 06:11:16;;;;;;;;;16.00;13.00;;;;;9.79;63.22;102039.97;5134701;27;45439;-79
2022/10/12 06:13:42;;;;;;;;;19.00;14.00;;;;;9.74;63.55;102036.50;5105029;27;63866;-80
2022/10/12 06:16:07;;;;;;;;;14.50;11.50;;;;;9.68;63.35;102037.41;5100238;27;63975;-81
2022/10/12 06:18:32;;;;;;;;;18.75;13.50;;;;;9.71;63.38;102039.09;5102004;27;45396;-80
2022/10/12 06:20:58;;;;;;;;;13.25;10.75;;;;;9.73;63.59;102043.41;5131966;27;45483;-80
2022/10/12 06:23:23;;;;;;;;;16.75;12.25;;;;;9.74;63.49;102045.16;5110942;27;65266;-80
2022/10/12 06:25:50;;;;;;;;;12.00;10.75;;;;;9.75;63.35;102038.22;5138815;27;72372;-80
2022/10/12 06:28:16;;;;;;;;;18.25;11.50;;;;;9.72;63.14;102046.91;5131122;27;45409;-81
2022/10/12 06:30:42;;;;;;;;;20.25;13.25;;;;;9.71;63.62;102049.50;5137895;27;45240;-80
2022/10/12 06:33:07;;;;;;;;;12.25;9.50;;;;;9.75;63.36;102059.03;5113015;27;45507;-81
2022/10/12 06:35:33;;;;;;;;;18.75;13.25;;;;;9.80;63.04;102059.88;5139341;27;46537;-79
2022/10/12 06:37:58;;;;;;;;;15.00;11.50;;;;;9.84;63.50;102067.66;5138595;27;70831;-79
2022/10/12 06:40:23;;;;;;;;;15.25;13.75;;;;;9.85;63.78;102058.97;5120093;27;67586;-80
2022/10/12 06:42:49;;;;;;;;;15.00;11.25;;;;;9.84;63.74;102052.06;5139582;27;45522;-79
2022/10/12 06:45:15;;;;;;;;;13.00;13.00;;;;;9.83;63.81;102063.31;5139381;27;47124;-78
2022/10/12 06:47:41;;;;;;;;;14.25;11.50;;;;;9.81;63.73;102059.88;5139015;27;46075;-79
2022/10/12 06:50:07;;;;;;;;;13.75;11.75;;;;;9.81;64.14;102067.66;5138836;27;58778;-78
2022/10/12 06:52:32;;;;;;;;;18.25;12.75;;;;;9.79;63.83;102061.63;5139411;27;45302;-81
2022/10/12 06:54:58;;;;;;;;;14.25;14.00;;;;;9.79;63.85;102074.63;5122894;27;47117;-79
2022/10/12 06:57:23;;;;;;;;;16.25;13.50;;;;;9.81;64.12;102070.28;5119942;27;65476;-79
2022/10/12 06:59:48;;;;;;;;;10.00;10.00;;;;;9.84;64.40;102072.88;5139120;27;45286;-79
2022/10/12 07:02:14;;;;;;;;;17.75;14.00;;;;;9.87;64.73;102075.44;5138199;27;62393;-79
2022/10/12 07:04:39;;;;;;;;;22.50;16.00;;;;;9.88;64.03;102076.31;5139192;27;46141;-80
2022/10/12 07:07:04;;;;;;;;;22.25;16.25;;;;;9.89;64.30;102075.44;5138955;27;45449;-80
2022/10/12 07:09:30;;;;;;;;;22.00;18.00;;;;;9.94;63.95;102084.09;5139198;27;45565;-80
2022/10/12 07:11:55;;;;;;;;;19.00;14.25;;;;;9.99;64.01;102084.06;5138005;27;69529;-80
2022/10/12 07:14:21;;;;;;;;;19.25;14.50;;;;;10.02;63.84;102079.69;5138797;27;47189;-81
2022/10/12 07:16:46;;;;;;;;;17.75;14.00;;;;;10.03;64.15;102077.97;5119179;27;71652;-80
2022/10/12 07:19:12;;;;;;;;;21.00;14.50;;;;;10.05;64.23;102081.44;5120198;27;45726;-79
2022/10/12 07:21:37;;;;;;;;;18.75;14.75;;;;;10.03;64.51;102083.19;5138661;27;45276;-79
2022/10/12 07:24:03;;;;;;;;;15.75;14.50;;;;;10.04;64.18;102083.16;5138678;27;46225;-79
2022/10/12 07:26:28;;;;;;;;;15.25;14.25;;;;;10.07;64.21;102080.53;5138626;27;45984;-79
2022/10/12 07:28:54;;;;;;;;;24.75;14.75;;;;;10.08;64.34;102076.19;5138545;27;45339;-79
2022/10/12 07:31:19;;;;;;;;;17.25;14.25;;;;;10.07;64.53;102077.94;5137758;27;70371;-79
2022/10/12 07:33:44;;;;;;;;;15.25;15.25;;;;;10.09;64.11;102085.75;5102265;27;53258;-79
2022/10/12 07:36:10;;;;;;;;;23.00;19.75;;;;;10.12;64.14;102083.09;5137916;27;61269;-80
2022/10/12 07:38:35;;;;;;;;;23.25;14.75;;;;;10.14;64.57;102093.50;5138789;27;45350;-80
2022/10/12 07:41:02;;;;;;;;;21.00;19.00;;;;;10.13;64.55;102086.59;5138610;27;45591;-79
2022/10/12 07:43:28;;;;;;;;;19.75;15.00;;;;;10.16;64.25;102095.25;5138115;27;47384;-80
2022/10/12 07:45:54;;;;;;;;;24.50;16.50;;;;;10.18;64.31;102092.66;5138440;27;45807;-80
2022/10/12 07:48:20;;;;;;;;;18.25;15.00;;;;;10.19;64.65;102095.22;5120070;27;45518;-81
2022/10/12 07:50:45;;;;;;;;;15.00;13.75;;;;;10.24;64.62;102103.88;5137995;27;45527;-80
2022/10/12 07:53:10;;;;;;;;;22.50;16.75;;;;;10.27;64.41;102109.06;5131534;27;72290;-80
2022/10/12 07:55:36;;;;;;;;;19.75;17.00;;;;;10.31;64.52;102107.34;5134648;27;53074;-79
2022/10/12 07:58:01;;;;;;;;;17.75;15.00;;;;;10.35;64.10;102103.84;5136811;27;62981;-80
2022/10/12 08:00:28;;;;;;;;;22.25;18.75;;;;;10.39;64.33;102105.53;5138174;27;45449;-80
2022/10/12 08:02:53;;;;;;;;;24.00;19.00;;;;;10.43;64.02;102101.19;5117783;27;46336;-80
2022/10/12 08:05:22;;;;;;;;;25.00;17.50;;;;;10.49;64.04;102105.47;5135592;27;62717;-80
2022/10/12 08:07:48;;;;;;;;;20.25;15.75;;;;;10.57;64.31;102108.91;5119923;27;45417;-80
2022/10/12 08:10:14;;;;;;;;;25.50;16.25;;;;;10.70;64.20;102112.28;5119262;27;45397;-80
2022/10/12 08:12:40;;;;;;;;;18.25;15.75;;;;;10.79;63.51;102115.69;5118729;27;46858;-80
2022/10/12 08:15:05;;;;;;;;;21.50;19.00;;;;;10.89;63.62;102111.25;5119273;27;45308;-80
2022/10/12 08:17:31;;;;;;;;;21.50;17.50;;;;;10.97;63.31;102116.41;5137324;27;45253;-80
2022/10/12 08:19:56;;;;;;;;;23.75;17.50;;;;;11.07;63.11;102114.56;5127795;27;67180;-80
2022/10/12 08:22:21;;;;;;;;;21.00;16.25;;;;;11.15;62.73;102112.78;5115979;27;66246;-80
2022/10/12 08:24:47;;;;;;;;;20.25;18.50;;;;;11.22;62.75;102119.66;5115926;27;67892;-80
2022/10/12 08:27:12;;;;;;;;;28.50;19.25;;;;;11.31;62.20;102116.09;5116214;27;51795;-80
2022/10/12 08:29:38;;;;;;;;;20.00;19.00;;;;;11.34;62.77;102110.84;5098434;27;45570;-81
2022/10/12 08:32:04;;;;;;;;;25.50;20.25;;;;;11.40;62.24;102113.38;5116148;27;46316;-80
2022/10/12 08:34:29;;;;;;;;;23.00;17.00;;;;;11.51;62.24;102108.91;5116744;27;45459;-80
2022/10/12 08:36:57;;;;;;;;;21.50;18.00;;;;;11.60;61.85;102107.97;5115316;27;45507;-80
2022/10/12 08:39:22;;;;;;;;;21.50;17.50;;;;;11.66;61.58;102107.03;5116630;27;45385;-81
2022/10/12 08:41:57;;;;;;;;;23.50;20.25;;;;;11.72;62.11;102104.34;5115617;27;46896;-80
2022/10/12 08:44:59;;;;;;;;;23.25;21.25;;;;;11.74;61.42;102108.69;5115299;27;45789;-80
2022/10/12 08:47:43;;;;;;;;;20.75;20.00;;;;;11.83;62.07;102110.31;5115419;27;45272;-80
2022/10/12 08:50:16;;;;;;;;;24.75;19.00;;;;;11.94;61.82;102110.19;5115144;27;45480;-80
2022/10/12 08:52:54;;;;;;;;;18.75;16.25;;;;;12.02;60.87;102118.81;5116339;27;45354;-80
2022/10/12 08:55:23;;;;;;;;;29.00;21.00;;;;;12.13;60.90;102116.06;5115175;27;45421;-81
2022/10/12 08:57:48;;;;;;;;;21.50;17.50;;;;;12.22;60.85;102123.78;5116072;27;45357;-81
2022/10/12 09:00:14;;;;;;;;;22.75;17.75;;;;;12.30;60.68;102121.91;5115345;27;67760;-80
2022/10/12 09:02:49;;;;;;;;;26.50;19.50;;;;;12.41;60.19;102121.75;5116219;27;46196;-80
2022/10/12 09:05:18;;;;;;;;;27.00;19.75;;;;;12.53;60.35;102110.25;5116366;27;45350;-80
2022/10/12 09:07:54;;;;;;;;;23.00;18.00;;;;;12.63;60.02;102106.63;5115164;27;45348;-80
2022/10/12 09:10:34;;;;;;;;;22.75;18.00;;;;;12.69;59.49;102109.13;5114934;27;45707;-78
2022/10/12 09:13:08;;;;;;;;;23.25;19.50;;;;;12.78;59.72;102103.75;5116069;27;46387;-80
2022/10/12 09:15:59;;;;;;;;;28.50;20.00;;;;;12.86;59.58;102106.25;5115969;27;45543;-80
2022/10/12 09:18:36;;;;;;;;;24.50;20.50;;;;;12.95;59.55;102108.72;5115107;27;45305;-80
2022/10/12 09:21:05;;;;;;;;;32.50;23.00;;;;;13.06;59.43;102112.91;5114364;27;45652;-79
2022/10/12 09:23:34;;;;;;;;;25.75;22.75;;;;;13.13;58.99;102111.88;5114898;27;46582;-79
2022/10/12 09:26:32;;;;;;;;;34.00;24.75;;;;;13.23;59.16;102110.84;5115607;27;45351;-79
2022/10/12 09:28:58;;;;;;;;;20.50;19.00;;;;;13.35;58.67;102100.19;5116029;27;45530;-79
2022/10/12 09:31:47;;;;;;;;;22.25;21.00;;;;;13.47;58.81;102100.84;5115820;27;45398;-79
2022/10/12 09:34:13;;;;;;;;;28.50;25.00;;;;;13.58;58.88;102100.63;5127243;27;45447;-79
2022/10/12 09:36:39;;;;;;;;;30.50;21.00;;;;;13.68;58.30;102092.56;5135594;27;73115;-79
2022/10/12 09:39:17;;;;;;;;;23.50;18.50;;;;;13.82;57.86;102094.03;5136660;27;45389;-79
2022/10/12 09:41:44;;;;;;;;;30.00;24.00;;;;;13.91;58.17;102096.44;5136147;27;45594;-80
2022/10/12 09:44:30;;;;;;;;;27.00;22.25;;;;;13.98;57.70;102084.09;5136212;27;46596;-79
2022/10/12 09:47:01;;;;;;;;;25.00;22.00;;;;;14.07;57.72;102087.38;5117924;27;45484;-79
2022/10/12 09:49:43;;;;;;;;;29.00;24.50;;;;;14.15;57.37;102087.19;5136472;27;45303;-78
2022/10/12 09:52:10;;;;;;;;;27.00;21.00;;;;;14.23;57.55;102076.56;5136850;27;45445;-79
2022/10/12 09:54:38;;;;;;;;;35.25;25.75;;;;;14.33;57.19;102086.78;5120830;27;45464;-79
2022/10/12 09:57:05;;;;;;;;;24.00;20.50;;;;;14.44;56.88;102085.69;5121152;27;45296;-79
2022/10/12 09:59:38;;;;;;;;;25.50;22.00;;;;;14.55;56.98;102083.66;5120533;27;67875;-79
2022/10/12 10:02:12;;;;;;;;;28.00;22.75;;;;;14.66;56.90;102083.44;5121295;27;45345;-79
2022/10/12 10:04:39;;;;;;;;;29.00;23.75;;;;;14.78;56.73;102083.13;5139819;27;47326;-79
2022/10/12 10:07:28;;;;;;;;;25.25;22.00;;;;;14.88;56.71;102084.63;5139849;27;46066;-79
2022/10/12 10:10:11;;;;;;;;;24.25;21.25;;;;;14.98;56.90;102073.91;5139455;27;45413;-79
2022/10/12 10:12:52;;;;;;;;;21.00;18.00;;;;;15.09;56.08;102067.47;5139899;27;45414;-79
2022/10/12 10:15:40;;;;;;;;;32.75;25.00;;;;;15.22;56.07;102064.53;5121143;27;45456;-79
2022/10/12 10:18:31;;;;;;;;;28.00;21.50;;;;;15.38;56.52;102067.56;5138717;27;45258;-79
2022/10/12 10:20:58;;;;;;;;;23.00;19.75;;;;;15.53;56.74;102066.31;5120441;27;45339;-79
2022/10/12 10:23:30;;;;;;;;;23.00;19.00;;;;;15.69;56.37;102057.06;5103443;27;45386;-79
2022/10/12 10:26:09;;;;;;;;;29.50;21.00;;;;;15.85;56.54;102058.34;5120791;27;45452;-79
2022/10/12 10:28:37;;;;;;;;;24.75;20.25;;;;;15.98;56.34;102055.38;5139773;27;45428;-80
2022/10/12 10:31:05;;;;;;;;;24.00;20.25;;;;;16.11;55.50;102055.84;5119587;27;46069;-78
2022/10/12 10:33:33;;;;;;;;;26.75;21.75;;;;;16.23;55.26;102056.34;5126031;27;45393;-78
2022/10/12 10:36:22;;;;;;;;;30.50;24.50;;;;;16.31;55.03;102057.88;5119373;27;46249;-80
2022/10/12 10:38:55;;;;;;;;;24.75;20.50;;;;;16.38;54.75;102057.63;5124633;27;45317;-79
2022/10/12 10:41:24;;;;;;;;;22.75;19.00;;;;;16.46;54.93;102057.34;5112748;27;45489;-79
2022/10/12 10:43:50;;;;;;;;;24.00;22.00;;;;;16.61;55.09;102051.59;5111287;27;45579;-80
2022/10/12 10:46:26;;;;;;;;;23.25;20.50;;;;;16.85;54.60;102046.44;5116098;27;45672;-80
2022/10/12 10:49:00;;;;;;;;;29.00;21.50;;;;;17.06;54.40;102038.72;5118188;27;45990;-80
2022/10/12 10:51:52;;;;;;;;;22.75;20.50;;;;;17.27;54.44;102048.47;5119305;27;45535;-78
2022/10/12 10:54:23;;;;;;;;;33.75;23.25;;;;;17.58;54.84;102048.19;5134114;27;45272;-79
2022/10/12 10:57:00;;;;;;;;;27.50;21.75;;;;;17.98;54.07;102051.97;5117832;27;46126;-79
2022/10/12 10:59:47;;;;;;;;;27.25;18.00;;;;;18.47;54.50;102050.91;5100155;27;45344;-80
2022/10/12 11:02:21;;;;;;;;;17.25;14.25;;;;;18.82;53.59;102053.91;5099707;27;45384;-78
2022/10/12 11:04:51;;;;;;;;;25.25;19.25;;;;;19.02;53.06;102045.97;5099960;27;45407;-79
2022/10/12 11:07:32;;;;;;;;;18.50;15.75;;;;;19.20;52.24;102051.34;5100486;27;45446;-78
2022/10/12 11:10:01;;;;;;;;;22.00;15.00;;;;;19.27;52.08;102045.72;5099635;27;45400;-79
2022/10/12 11:12:41;;;;;;;;;26.25;16.00;;;;;19.44;51.97;102044.13;5100969;27;45430;-79
2022/10/12 11:15:22;;;;;;;;;21.25;16.50;;;;;19.64;51.77;102044.06;5138968;27;45455;-79
2022/10/12 11:17:53;;;;;;;;;19.00;17.50;;;;;19.83;51.66;102049.38;5119808;27;46398;-80
2022/10/12 11:20:30;;;;;;;;;24.50;18.25;;;;;19.87;50.56;102047.44;5130572;27;45355;-80